Upstream stations:
Downstream station:
SHEF ID: MRIT2 Lake Meredith
STATION TYPE: RESERVOIR
Flood Pool: Bottom = 2941.30, Top = 2965.00
ELEVATION STORAGE INFLOW RELEASE WIND-DIRWIND-SPEED
ft ac-ft cfs cfs deg mph
Ccp-Rev Ccp-Rev Rev-Regi Rev-Regi Ccp-Rev Ccp-Rev
(US/Central)
05/25 00:00 2883.36 202804 0 0 349.00 14.00
05/25 01:00 2883.36 202804 0 0 336.00 12.00
05/25 02:00 2883.34 202671 0 0 317.00 12.00
05/25 03:00 2883.34 202671 0 0 317.00 14.00
05/25 04:00 2883.32 202538 0 0 321.00 14.00
05/25 05:00 2883.27 202204 0 0 323.00 11.00
05/25 06:00 2883.32 202538 0 0 305.00 10.00
05/25 07:00 2883.29 202337 0 0 305.00 11.00
05/25 08:00 2883.32 202538 0 0 312.00 11.00
05/25 09:00 2883.30 202404 0 0 ---- ----
05/25 10:00 2883.32 202538 0 0 ---- ----
05/25 11:00 2883.33 202604 81 0 ---- ----
05/25 12:00 2883.32 202538 81 0 ---- ----
05/25 13:00 2883.33 202604 81 0 ---- ----
05/25 14:00 2883.33 202604 81 0 ---- ----
05/25 15:00 2883.37 202871 81 0 ---- ----
05/25 16:00 2883.33 202604 0 0 ---- ----
05/25 17:00 2883.34 202671 0 0 ---- ----
05/25 18:00 2883.34 202671 0 0 ---- ----
05/25 19:00 2883.33 202604 0 0 ---- ----
05/25 20:00 2883.35 202738 0 0 ---- ----
05/25 21:00 2883.33 202604 0 0 ---- ----
05/25 22:00 2883.31 202471 0 0 ---- ----
05/25 23:00 2883.32 202538 0 0 ---- ----